EDT,Max TemperatureF,Mean TemperatureF,Min TemperatureF,Max Dew PointF,MeanDew PointF,Min DewpointF,Max Humidity, Mean Humidity, Min Humidity, Max Sea Level PressureIn, Mean Sea Level PressureIn, Min Sea Level PressureIn, Max VisibilityMiles, Mean VisibilityMiles, Min VisibilityMiles, Max Wind SpeedMPH, Mean Wind SpeedMPH, Max Gust SpeedMPH,PrecipitationIn, CloudCover, Events, WindDirDegrees
2012-10-1,66,64,62,64,62,61,100,96,93,29.86,29.78,29.72,10,6,2,17,11,41,0.47,8,Rain-Thunderstorm,72
2012-10-2,80,72,64,72,67,62,100,87,56,29.97,29.79,29.70,10,8,0,13,8,18,0.97,7,Fog-Rain-Thunderstorm,213
2012-10-3,73,68,63,64,62,58,97,84,57,30.20,30.09,29.98,10,10,10,10,1,,0.00,1,,205
2012-10-4,81,70,61,64,61,55,100,84,44,30.26,30.22,30.16,10,7,2,9,1,,0.00,2,,264
2012-10-5,81,67,54,60,57,53,97,76,43,30.21,30.12,30.03,10,9,2,8,1,,0.01,0,,218
2012-10-6,82,68,55,63,59,54,96,74,48,30.03,29.96,29.88,10,9,5,15,4,21,0.00,0,,251
2012-10-7,73,66,59,63,60,52,100,83,64,30.09,30.00,29.93,10,10,5,17,4,,0.06,6,Rain-Thunderstorm,46
2012-10-8,57,54,51,51,46,42,86,74,62,30.17,30.13,30.09,10,10,10,15,10,22,0.00,8,,56
2012-10-9,61,53,46,48,46,44,93,77,59,30.19,30.14,30.10,10,10,10,8,5,,0.00,6,,60
2012-10-10,73,57,41,53,47,40,97,75,46,30.15,30.11,30.06,10,10,8,21,4,30,0.00,1,,276
2012-10-11,70,58,45,51,46,42,96,71,41,30.30,30.23,30.15,10,10,10,10,2,,0.00,0,,94
2012-10-12,75,62,50,59,52,48,93,74,48,30.27,30.21,30.17,10,10,10,6,1,,0.01,2,,44
2012-10-13,68,62,55,55,48,45,77,62,49,30.44,30.35,30.27,10,10,10,15,8,24,0.00,4,,61
2012-10-14,70,64,57,61,56,50,93,77,65,30.30,30.18,30.05,10,10,8,7,2,,0.00,5,,359
2012-10-15,78,69,60,65,59,42,100,80,31,29.99,29.91,29.81,10,9,6,18,7,26,0.07,6,Rain-Thunderstorm,232
2012-10-16,70,57,45,50,45,41,90,67,36,29.99,29.92,29.88,10,10,10,5,1,,0.00,0,,205
2012-10-17,73,60,48,52,47,45,93,66,37,29.99,29.92,29.86,10,10,10,10,3,,0.01,0,,164
2012-10-18,70,60,50,61,55,46,100,89,71,29.91,29.83,29.79,10,6,0,9,3,,0.00,4,Fog,237
2012-10-19,73,60,46,57,48,30,100,82,22,29.82,29.80,29.74,10,4,0,20,2,33,0.01,1,Fog,235
2012-10-20,71,57,44,47,43,40,85,62,40,29.96,29.86,29.79,10,10,10,14,5,,0.00,0,,251
2012-10-21,70,57,45,50,45,42,93,70,40,30.16,30.09,29.97,10,10,10,7,2,,0.00,0,,346
2012-10-22,77,60,45,53,49,44,97,69,40,30.23,30.17,30.13,10,10,10,6,1,,0.00,0,,269
2012-10-23,77,60,46,56,51,45,97,74,38,30.22,30.15,30.11,10,10,9,7,1,,0.01,0,,245
2012-10-24,80,62,46,56,50,45,100,72,30,30.21,30.14,30.08,10,10,8,7,1,,0.00,0,,211
2012-10-25,79,64,51,60,55,50,97,75,50,30.15,30.10,30.06,10,10,9,7,2,,0.00,1,,53
2012-10-26,80,69,59,62,57,55,93,71,46,30.08,30.00,29.92,10,10,10,13,5,,0.00,2,,51
2012-10-27,77,66,57,58,56,52,93,72,48,29.92,29.80,29.71,10,10,10,13,6,20,0.00,1,,34
2012-10-28,71,60,46,55,49,38,96,73,42,29.76,29.72,29.68,10,10,10,13,5,18,0.01,4,Rain,332
2012-10-29,60,52,44,38,33,28,76,53,35,29.75,29.69,29.63,10,10,10,29,11,39,0.00,3,,298
2012-10-30,52,48,46,31,29,25,52,46,42,29.74,29.61,29.55,10,10,10,23,15,31,0.00,6,,283
2012-10-31,64,54,45,30,25,19,50,36,18,29.83,29.77,29.72,10,10,10,18,11,28,0.00,0,,269